KPWK

Chicago Executive Airport

Chicago/Prospect Heights/Wheeling, Illinois, USA
METAR KPWK 191452Z 21008KT 10SM CLR 00/M07 A2990 RMK AO2 SLP130 T00001067 57002
Observed Flight Rules
Jan-19 @ 14:52 UTC (26 minutes ago) Visual Flight Rules
Wind Visibility Clouds
210° at 8 knots 10 miles
  • Clear skies
Temperatures Readings
Current 0°C / 32°F
Dewpoint -7°C / 19°F
Humidity 60%
Altimeter 29.9" Hg
Pressure 1013 hPa
Elevation 203
METAR KPWK 191452Z 21008KT 10SM CLR 00/M07 A2990 RMK AO2 SLP130 T00001067 57002
Observed Flight Rules
Jan-19 @ 14:52 UTC
(26 minutes ago)
VFR
Wind Visibility
210° at 8 knots 10 miles
Clouds
  • Clear skies
Temperature Dewpoint
0°C / 32°F -7°C / 19°F
Humidity Altimeter Pressure
60% 29.9" Hg 1013 hPa